Terminal Aerodrome Forecast
Issued by NWS

Home | Current Version | Previous Version | Text Only | Print | Product List | Glossary On
Versions: 1 2 3 4 5 6 7 8 9 10 11 12 13 14 15 16 17 18 19 20 21 22 23 24 25 26 27 28
000
FTUS41 KOKX 020129 AAA
TAFTEB
TAF AMD
KTEB 020129Z 0201/0224 06007KT 2SM -DZRA BR BKN005
      TEMPO 0201/0203 SCT005 OVC009
     FM020400 VRB03KT 2SM -RADZ BR OVC004
     FM021600 VRB04KT 2SM -RA BR OVC007
     FM021800 VRB04KT 4SM BR SCT009 BKN015=

USA.gov is the U.S. government's official web portal to all federal, state and local government web resources and services.